ROA236 SCQP-SCEL
Flight info
| Callsign | ROA236 |
|---|---|
| Flight time | N/A |
| Altitude | 34000 |
| Route | KETIR7E KETIR UQ802 EROLO EROLO8A |
| Aircraft | A321/M-SDE3FGHIRWY/LB1 |
Departure
| Time | 2026-04-24 16:30 |
|---|---|
| Airport | La Araucanía International Airport (SCQP) |
Arrival
| Time | N/A |
|---|---|
| Airport | Comodoro Arturo Merino Benítez International Airport (SCEL) |
| Time | Latitude | Longitude | Altitude | Speed | Heading |
|---|---|---|---|---|---|
| 2026-04-24 15:23 | -38.92702 | -72.64774 | 314 ft | 0 kts | 107° |
| 2026-04-24 16:18 | -38.92702 | -72.64775 | 313 ft | 1 kts | 107° |
| 2026-04-24 16:18 | -38.92690 | -72.64824 | 313 ft | 2 kts | 107° |
| 2026-04-24 16:18 | -38.92683 | -72.64850 | 312 ft | 3 kts | 116° |
| 2026-04-24 16:19 | -38.92653 | -72.64874 | 313 ft | 3 kts | 197° |
| 2026-04-24 16:19 | -38.92636 | -72.64863 | 312 ft | 1 kts | 197° |
| 2026-04-24 16:20 | -38.92635 | -72.64863 | 312 ft | 0 kts | 197° |
| 2026-04-24 16:23 | -38.92641 | -72.64865 | 312 ft | 2 kts | 197° |
| 2026-04-24 16:24 | -38.92696 | -72.64887 | 314 ft | 6 kts | 197° |
| 2026-04-24 16:24 | -38.92748 | -72.64909 | 313 ft | 9 kts | 198° |
| 2026-04-24 16:24 | -38.92819 | -72.64939 | 313 ft | 12 kts | 198° |
| 2026-04-24 16:24 | -38.92872 | -72.64989 | 312 ft | 11 kts | 250° |
| 2026-04-24 16:25 | -38.92863 | -72.65090 | 313 ft | 11 kts | 284° |
| 2026-04-24 16:25 | -38.92842 | -72.65202 | 315 ft | 14 kts | 282° |
| 2026-04-24 16:25 | -38.92907 | -72.65288 | 315 ft | 16 kts | 199° |
| 2026-04-24 16:26 | -38.93177 | -72.65394 | 312 ft | 25 kts | 197° |
| 2026-04-24 16:26 | -38.93321 | -72.65451 | 312 ft | 13 kts | 197° |
| 2026-04-24 16:26 | -38.93476 | -72.65512 | 311 ft | 14 kts | 197° |
| 2026-04-24 16:27 | -38.93535 | -72.65533 | 312 ft | 8 kts | 186° |
| 2026-04-24 16:27 | -38.93575 | -72.65519 | 312 ft | 6 kts | 159° |
| 2026-04-24 16:27 | -38.93602 | -72.65516 | 312 ft | 4 kts | 189° |
| 2026-04-24 16:27 | -38.93612 | -72.65547 | 312 ft | 4 kts | 275° |
| 2026-04-24 16:28 | -38.93588 | -72.65553 | 312 ft | 5 kts | 3° |
| 2026-04-24 16:28 | -38.93576 | -72.65549 | 312 ft | 0 kts | 15° |
| 2026-04-24 16:29 | -38.93575 | -72.65549 | 312 ft | 1 kts | 15° |
| 2026-04-24 16:29 | -38.93504 | -72.65522 | 312 ft | 34 kts | 16° |
| 2026-04-24 16:29 | -38.92056 | -72.64957 | 360 ft | 167 kts | 15° |
| 2026-04-24 16:30 | -38.89768 | -72.64029 | 1610 ft | 185 kts | 15° |
| 2026-04-24 16:30 | -38.88460 | -72.63519 | 1894 ft | 207 kts | 14° |
| 2026-04-24 16:30 | -38.87003 | -72.62959 | 2105 ft | 232 kts | 14° |
| 2026-04-24 16:31 | -38.85373 | -72.62325 | 2535 ft | 253 kts | 15° |
| 2026-04-24 16:31 | -38.83662 | -72.61754 | 3315 ft | 260 kts | 11° |
| 2026-04-24 16:31 | -38.81872 | -72.61251 | 4186 ft | 265 kts | 9° |
| 2026-04-24 16:31 | -38.80050 | -72.60767 | 5081 ft | 269 kts | 8° |
| 2026-04-24 16:32 | -38.78819 | -72.60444 | 5624 ft | 274 kts | 8° |
| 2026-04-24 16:32 | -38.76304 | -72.59772 | 6870 ft | 277 kts | 9° |
| 2026-04-24 16:32 | -38.74434 | -72.59270 | 7720 ft | 280 kts | 8° |
| 2026-04-24 16:32 | -38.72503 | -72.58750 | 8533 ft | 285 kts | 8° |
| 2026-04-24 16:33 | -38.70545 | -72.58220 | 9335 ft | 291 kts | 8° |
| 2026-04-24 16:33 | -38.68539 | -72.57666 | 10074 ft | 299 kts | 7° |
| 2026-04-24 16:33 | -38.66471 | -72.57102 | 10567 ft | 314 kts | 7° |
| 2026-04-24 16:33 | -38.64247 | -72.56503 | 10757 ft | 337 kts | 7° |
| 2026-04-24 16:34 | -38.61901 | -72.55866 | 11181 ft | 349 kts | 8° |
| 2026-04-24 16:34 | -38.59505 | -72.55204 | 11837 ft | 354 kts | 8° |
| 2026-04-24 16:34 | -38.57071 | -72.54527 | 12545 ft | 359 kts | 8° |
| 2026-04-24 16:34 | -38.54619 | -72.53847 | 13241 ft | 363 kts | 8° |
| 2026-04-24 16:35 | -38.52139 | -72.53161 | 13953 ft | 367 kts | 8° |
| 2026-04-24 16:35 | -38.49625 | -72.52472 | 14595 ft | 370 kts | 8° |
| 2026-04-24 16:35 | -38.47095 | -72.51784 | 15227 ft | 373 kts | 8° |
| 2026-04-24 16:35 | -38.44542 | -72.51093 | 15918 ft | 376 kts | 8° |
| 2026-04-24 16:36 | -38.42007 | -72.50407 | 16566 ft | 379 kts | 8° |
| 2026-04-24 16:36 | -38.39413 | -72.49702 | 17224 ft | 383 kts | 8° |
| 2026-04-24 16:36 | -38.36795 | -72.48989 | 17860 ft | 386 kts | 8° |
| 2026-04-24 16:36 | -38.34152 | -72.48268 | 18497 ft | 389 kts | 8° |
| 2026-04-24 16:37 | -38.31486 | -72.47540 | 19037 ft | 392 kts | 8° |
| 2026-04-24 16:37 | -38.28803 | -72.46808 | 19569 ft | 395 kts | 8° |
| 2026-04-24 16:37 | -38.27017 | -72.46321 | 19926 ft | 397 kts | 8° |
| 2026-04-24 16:37 | -38.23369 | -72.45322 | 20615 ft | 402 kts | 8° |
| 2026-04-24 16:38 | -38.20666 | -72.44567 | 21115 ft | 405 kts | 8° |
| 2026-04-24 16:38 | -38.17871 | -72.43779 | 21632 ft | 408 kts | 8° |
| 2026-04-24 16:38 | -38.15124 | -72.43001 | 22131 ft | 411 kts | 8° |
| 2026-04-24 16:38 | -38.12323 | -72.42212 | 22631 ft | 414 kts | 8° |
| 2026-04-24 16:39 | -38.09499 | -72.41422 | 23118 ft | 417 kts | 8° |
| 2026-04-24 16:39 | -38.06655 | -72.40631 | 23590 ft | 420 kts | 8° |
| 2026-04-24 16:39 | -38.03788 | -72.39835 | 24040 ft | 423 kts | 8° |
| 2026-04-24 16:39 | -38.00896 | -72.39031 | 24424 ft | 425 kts | 8° |
| 2026-04-24 16:40 | -37.97999 | -72.38224 | 24815 ft | 428 kts | 8° |
| 2026-04-24 16:40 | -37.95074 | -72.37407 | 25215 ft | 430 kts | 8° |
| 2026-04-24 16:40 | -37.92143 | -72.36587 | 25603 ft | 433 kts | 8° |
| 2026-04-24 16:40 | -37.89194 | -72.35766 | 26004 ft | 435 kts | 8° |
| 2026-04-24 16:41 | -37.86228 | -72.34943 | 26397 ft | 437 kts | 8° |
| 2026-04-24 16:41 | -37.83255 | -72.34121 | 26779 ft | 439 kts | 8° |
| 2026-04-24 16:41 | -37.80260 | -72.33291 | 27156 ft | 441 kts | 8° |
| 2026-04-24 16:41 | -37.77297 | -72.32468 | 27503 ft | 443 kts | 8° |
| 2026-04-24 16:42 | -37.74275 | -72.31628 | 27878 ft | 445 kts | 8° |
| 2026-04-24 16:42 | -37.71242 | -72.30787 | 28241 ft | 447 kts | 8° |
| 2026-04-24 16:42 | -37.68190 | -72.29942 | 28602 ft | 450 kts | 7° |
| 2026-04-24 16:42 | -37.65120 | -72.29092 | 28948 ft | 452 kts | 7° |
| 2026-04-24 16:43 | -37.62031 | -72.28219 | 29291 ft | 454 kts | 8° |
| 2026-04-24 16:43 | -37.58940 | -72.27298 | 29613 ft | 457 kts | 9° |
| 2026-04-24 16:43 | -37.55878 | -72.26350 | 29948 ft | 459 kts | 9° |
| 2026-04-24 16:43 | -37.52764 | -72.25370 | 30263 ft | 462 kts | 9° |
| 2026-04-24 16:44 | -37.49641 | -72.24389 | 30555 ft | 463 kts | 9° |
| 2026-04-24 16:44 | -37.46495 | -72.23412 | 30823 ft | 465 kts | 9° |
| 2026-04-24 16:44 | -37.43343 | -72.22447 | 31084 ft | 467 kts | 8° |
| 2026-04-24 16:44 | -37.40185 | -72.21489 | 31474 ft | 466 kts | 8° |
| 2026-04-24 16:45 | -37.37078 | -72.20549 | 31859 ft | 465 kts | 8° |
| 2026-04-24 16:45 | -37.33936 | -72.19600 | 32235 ft | 464 kts | 8° |
| 2026-04-24 16:45 | -37.30789 | -72.18651 | 32614 ft | 464 kts | 8° |
| 2026-04-24 16:45 | -37.27656 | -72.17703 | 32952 ft | 463 kts | 8° |
| 2026-04-24 16:46 | -37.24521 | -72.16754 | 33340 ft | 462 kts | 8° |
| 2026-04-24 16:46 | -37.21398 | -72.15810 | 33714 ft | 462 kts | 8° |
| 2026-04-24 16:46 | -37.18268 | -72.14865 | 34069 ft | 461 kts | 7° |
| 2026-04-24 16:46 | -37.16194 | -72.14239 | 34228 ft | 462 kts | 7° |
| 2026-04-24 16:47 | -37.09987 | -72.12361 | 34273 ft | 456 kts | 7° |
| 2026-04-24 16:47 | -37.03820 | -72.10497 | 34255 ft | 454 kts | 7° |
| 2026-04-24 16:48 | -36.97704 | -72.08653 | 34269 ft | 454 kts | 7° |
| 2026-04-24 16:48 | -36.91559 | -72.06808 | 34269 ft | 454 kts | 7° |
| 2026-04-24 16:49 | -36.85414 | -72.04968 | 34268 ft | 454 kts | 7° |
| 2026-04-24 16:49 | -36.79272 | -72.03126 | 34242 ft | 453 kts | 7° |
| 2026-04-24 16:50 | -36.73133 | -72.01293 | 34251 ft | 454 kts | 7° |
| 2026-04-24 16:50 | -36.66998 | -71.99460 | 34255 ft | 453 kts | 7° |
| 2026-04-24 16:51 | -36.60891 | -71.97642 | 34254 ft | 454 kts | 7° |
| 2026-04-24 16:51 | -36.54739 | -71.95818 | 34238 ft | 454 kts | 6° |
| 2026-04-24 16:52 | -36.48627 | -71.94002 | 34243 ft | 453 kts | 6° |
| 2026-04-24 16:52 | -36.42494 | -71.92180 | 34254 ft | 453 kts | 6° |
| 2026-04-24 16:53 | -36.36354 | -71.90364 | 34247 ft | 453 kts | 6° |
| 2026-04-24 16:53 | -36.30232 | -71.88552 | 34235 ft | 452 kts | 6° |
| 2026-04-24 16:54 | -36.24103 | -71.86740 | 34243 ft | 452 kts | 6° |
| 2026-04-24 16:54 | -36.17990 | -71.84937 | 34254 ft | 451 kts | 6° |
| 2026-04-24 16:55 | -36.11904 | -71.83149 | 34250 ft | 451 kts | 6° |
| 2026-04-24 16:55 | -36.05783 | -71.81360 | 34219 ft | 451 kts | 5° |
| 2026-04-24 16:56 | -35.99718 | -71.79583 | 34235 ft | 450 kts | 5° |
| 2026-04-24 16:56 | -35.93612 | -71.77792 | 34242 ft | 450 kts | 5° |
| 2026-04-24 16:57 | -35.87514 | -71.76001 | 34243 ft | 450 kts | 5° |
| 2026-04-24 16:57 | -35.81403 | -71.74216 | 34223 ft | 450 kts | 5° |
| 2026-04-24 16:58 | -35.75305 | -71.72448 | 34239 ft | 450 kts | 5° |
| 2026-04-24 16:58 | -35.69248 | -71.70688 | 34247 ft | 450 kts | 5° |
| 2026-04-24 16:59 | -35.63143 | -71.68907 | 34247 ft | 450 kts | 5° |
| 2026-04-24 17:00 | -35.54043 | -71.66282 | 34221 ft | 449 kts | 4° |
| 2026-04-24 17:00 | -35.44920 | -71.63645 | 34241 ft | 449 kts | 4° |
| 2026-04-24 17:01 | -35.35778 | -71.61001 | 34255 ft | 449 kts | 4° |
| 2026-04-24 17:02 | -35.26628 | -71.58358 | 34234 ft | 449 kts | 4° |
| 2026-04-24 17:02 | -35.20575 | -71.56625 | 34247 ft | 449 kts | 4° |
| 2026-04-24 17:03 | -35.11438 | -71.54005 | 34231 ft | 449 kts | 4° |
| 2026-04-24 17:04 | -35.05341 | -71.52263 | 34242 ft | 450 kts | 4° |
| 2026-04-24 17:04 | -34.96245 | -71.49660 | 34237 ft | 449 kts | 4° |
| 2026-04-24 17:05 | -34.90156 | -71.47923 | 34234 ft | 449 kts | 4° |
| 2026-04-24 17:06 | -34.81026 | -71.45324 | 34195 ft | 449 kts | 4° |
| 2026-04-24 17:06 | -34.71908 | -71.42741 | 33939 ft | 451 kts | 4° |
| 2026-04-24 17:07 | -34.69839 | -71.42155 | 33748 ft | 451 kts | 4° |
| 2026-04-24 17:07 | -34.65785 | -71.40977 | 33393 ft | 454 kts | 7° |
| 2026-04-24 17:07 | -34.59793 | -71.38201 | 32838 ft | 460 kts | 13° |
| 2026-04-24 17:08 | -34.53896 | -71.35285 | 31709 ft | 458 kts | 13° |
| 2026-04-24 17:08 | -34.50948 | -71.33829 | 31189 ft | 456 kts | 13° |
| 2026-04-24 17:08 | -34.48009 | -71.32376 | 30636 ft | 456 kts | 13° |
| 2026-04-24 17:09 | -34.42143 | -71.29494 | 29502 ft | 452 kts | 13° |
| 2026-04-24 17:09 | -34.36379 | -71.26671 | 28424 ft | 446 kts | 14° |
| 2026-04-24 17:10 | -34.33508 | -71.25263 | 27910 ft | 443 kts | 14° |
| 2026-04-24 17:10 | -34.24987 | -71.21095 | 26371 ft | 435 kts | 15° |
| 2026-04-24 17:11 | -34.16670 | -71.17033 | 24931 ft | 427 kts | 15° |
| 2026-04-24 17:12 | -34.03124 | -71.10438 | 22530 ft | 411 kts | 16° |